Airfield :
LOGIN :

Register | Disclaimer

   EN    FR    IT 

 










Legend :    VFR   Marginal VFR   IFR   Intensive IFR   Very Intensive IFR
Visi :
Ceiling :
>= 8 km
>= 3000ft
5 to 8 km
1000 to 3000 ft
1500m to 5 km
500 to 1000 ft
800 to 1500m
200 to 500 ft
< 800m
< 200 ft
Symbols :   Thunderstorms  Fog  Heavy snow  Heavy precipitations  Wind > 20 kt
SIGMETs :     Misc.  Thunderstorms  Icing  Turbulence  Mountain Waves  Volcanic Ashes







- Airport Elevation : 348 ft
- IATA code : STN
- Download approach charts


EGSS - London Stansted

CURRENT METAR :
  • 170720Z AUTO 20009KT 9999 -RA BKN004 OVC008 17/16 Q1010

EXPIRED METARs :
  • 170650Z AUTO 20010KT 6000 -RA OVC003/// //////TCU 17/16 Q1010
  • 170620Z AUTO 20010KT 6000 -RA OVC003/// //////TCU 17/16 Q1010
  • 170550Z AUTO 20010KT 9000 -RA OVC004 16/16 Q1010
  • 170520Z AUTO 19010KT 8000 -RA OVC004 16/15 Q1010
  • 170450Z AUTO 18010KT 7000 -RA OVC004 15/15 Q1010

TAF TAF EGSS
Valid from the 17 at 06:00 until the 18 at 12:00 UTC


170458Z 1706/1812 19009KT 7000 -RA BKN004
BECMG 1706/1709 9999 NSW SCT020
PROB40
TEMPO 1706/1708 4000 +RA RADZ
PROB40
TEMPO 1709/1713 7000 SHRA BKN009
PROB30
TEMPO 1713/1724 7000 SHRA
PROB30
TEMPO 1810/1812 7000 SHRA
ATIS : +44 1279 669 325
No reported NOTAMs for that airfield.



MET'MAP, your aeronautical weather chart ! - Copyright ORBIFLY December 2007 - Disclaimer

ORBIFLY MET'MAP TEAM :

Programming & Development : Alexandra Zaïnal
Concept & Development : Baudouin d'Aumeries
Co-Development & Prog : Marc-Olivier Méhu
Technical & hardware support : Manuel Goepfert

Contact : metmap@orbifly.com




SOURCES & CREDITS :

   NOAA